Austin Bergstrom International Airport
KAUS : now visible

Airfield :











YOU CAN JOIN US ON...

 
LOGIN :

Register | Disclaimer

   EN    FR    IT 

 









Legend :    VFR   Marginal VFR   IFR   Intensive IFR   Very Intensive IFR
Visi :
Ceiling :
>= 8 km
>= 3000ft
5 to 8 km
1000 to 3000 ft
1500m to 5 km
500 to 1000 ft
800 to 1500m
200 to 500 ft
< 800m
< 200 ft
Symbols :   Thunderstorms  Fog  Heavy snow  Heavy precipitations  Wind > 20 kt






- Airport Elevation : 542 ft
- IATA code : AUS


KAUS - Austin Bergstrom International

CURRENT METAR :
  • 280453Z 16007KT 10SM SCT060 BKN150 OVC200 19/18 A2989 RMK AO2 SLP113 CONS LTG DSNT N-NE T01940178

EXPIRED METARs :
  • 280353Z 13013G20KT 10SM FEW030 SCT060 BKN150 OVC250 21/19 A2989 RMK AO2 RAE0258 SLP112 P0000 T02110189
  • 280253Z 11009KT 10SM -RA FEW060 BKN110 OVC200 21/19 A2986 RMK AO2 RAB14 SLP102 FRQ LTG DSNT SE P0000 60061 T02060189 51016

TAF KAUS
Valid from the 28 at 05:00 until the 29 at 06:00 UTC


280443Z 2805/2906 13013G20KT P6SM VCSH FEW030 SCT060 OVC250
FM280700 20004KT P6SM BKN250
FM281200 06003KT P6SM BKN025
FM281800 05004KT P6SM SCT035
KZHU FIR / North America



MET'MAP, your aeronautical weather chart ! - Copyright ORBIFLY December 2007 - Disclaimer

ORBIFLY MET'MAP TEAM :

Programming & Development : Alexandra Zaïnal
Concept & original design : Baudouin d'Aumeries
Assistance for programming : Marc-Olivier Méhu
Technical & hardware support : Manuel Goepfert

Contact : metmap@orbifly.com




SOURCES & CREDITS :

   NOAA       Earth
Advisory